Time;durP1;ratioP1;P1;durP2;ratioP2;P2;SDS_P1;SDS_P2;PMS_P1;PMS_P2;Temp;Humidity;BMP_temperature;BMP_pressure;BME280_temperature;BME280_humidity;BME280_pressure;Samples;Min_cycle;Max_cycle;Signal;HPM_P1;HPM_P2
2022/03/12 00:02:04;;;;;;;8.40;4.78;;;3.40;47.80;;;;;;4964461;28;20463;-89
2022/03/12 00:04:53;;;;;;;11.27;4.07;;;3.40;47.90;;;;;;4959831;28;20023;-89
2022/03/12 00:07:21;;;;;;;6.00;4.30;;;3.30;48.00;;;;;;4959143;28;20026;-89
2022/03/12 00:10:01;;;;;;;6.95;4.25;;;3.30;48.00;;;;;;4960382;28;20368;-89
2022/03/12 00:15:22;;;;;;;6.88;4.55;;;3.30;48.00;;;;;;4986646;28;20027;-90
2022/03/12 00:18:20;;;;;;;;;;;;;;;;;;;;;
2022/03/12 00:21:10;;;;;;;10.07;4.28;;;3.30;48.20;;;;;;4980233;28;20122;-89
2022/03/12 00:26:08;;;;;;;7.47;4.63;;;3.20;48.10;;;;;;4983179;28;20074;-88
2022/03/12 00:28:33;;;;;;;9.80;4.47;;;3.20;48.10;;;;;;4989298;28;20276;-89
2022/03/12 00:30:59;;;;;;;6.90;4.13;;;3.20;48.20;;;;;;5007259;28;20041;-89
2022/03/12 00:33:25;;;;;;;5.75;4.10;;;3.20;48.20;;;;;;4980574;28;20039;-88
2022/03/12 00:35:51;;;;;;;6.47;4.25;;;3.20;48.30;;;;;;4989973;28;20029;-89
2022/03/12 00:38:19;;;;;;;8.43;4.50;;;3.20;48.30;;;;;;4991174;28;20038;-88
2022/03/12 00:40:45;;;;;;;7.22;4.47;;;3.10;48.30;;;;;;4993034;28;20042;-87
2022/03/12 00:43:11;;;;;;;7.60;4.55;;;3.10;48.40;;;;;;4994179;28;20037;-88
2022/03/12 00:45:37;;;;;;;7.05;4.40;;;3.10;48.40;;;;;;4993219;28;20098;-87
2022/03/12 00:48:04;;;;;;;6.93;4.47;;;3.10;48.40;;;;;;4992000;28;20390;-88
2022/03/12 00:50:29;;;;;;;6.88;4.35;;;3.10;48.50;;;;;;4992859;28;20670;-88
2022/03/12 00:52:55;;;;;;;7.30;4.40;;;3.00;48.50;;;;;;4993056;28;20054;-87
2022/03/12 00:55:20;;;;;;;9.15;4.90;;;3.00;48.50;;;;;;4996135;28;20025;-89
2022/03/12 00:57:46;;;;;;;12.20;4.03;;;3.00;48.60;;;;;;5000044;28;20092;-88
2022/03/12 01:00:15;;;;;;;8.38;4.72;;;2.90;48.60;;;;;;4992567;28;20470;-87
2022/03/12 01:02:41;;;;;;;6.05;4.45;;;2.90;48.70;;;;;;4992172;28;20030;-88
2022/03/12 01:05:07;;;;;;;10.25;4.63;;;2.80;48.70;;;;;;4994550;28;20090;-88
2022/03/12 01:07:32;;;;;;;8.30;4.47;;;2.80;48.80;;;;;;4981578;28;20038;-88
2022/03/12 01:09:59;;;;;;;8.38;4.78;;;2.80;48.90;;;;;;4986969;28;20046;-89
2022/03/12 01:12:25;;;;;;;7.53;4.35;;;2.80;48.90;;;;;;4992689;28;20090;-88
2022/03/12 01:14:51;;;;;;;8.40;5.03;;;2.80;49.00;;;;;;4992196;28;20442;-88
2022/03/12 01:17:16;;;;;;;11.88;4.60;;;2.70;49.00;;;;;;4987064;28;20034;-88
2022/03/12 01:19:42;;;;;;;8.27;4.50;;;2.70;49.00;;;;;;4992231;28;20042;-89
2022/03/12 01:22:08;;;;;;;6.53;4.28;;;2.70;49.10;;;;;;4992525;28;20041;-89
2022/03/12 01:24:35;;;;;;;6.63;4.45;;;2.80;49.10;;;;;;4988065;28;20117;-88
2022/03/12 01:27:00;;;;;;;6.32;4.47;;;2.70;49.10;;;;;;4996692;28;20363;-88
2022/03/12 01:29:27;;;;;;;7.00;4.35;;;2.70;49.10;;;;;;5008145;28;20114;-87
2022/03/12 01:31:52;;;;;;;6.97;4.07;;;2.70;49.20;;;;;;4992703;28;20027;-89
2022/03/12 01:34:18;;;;;;;8.50;4.63;;;2.70;49.20;;;;;;4992719;28;20030;-88
2022/03/12 01:36:44;;;;;;;8.30;4.68;;;2.70;49.40;;;;;;4992161;28;20466;-88
2022/03/12 01:39:09;;;;;;;5.40;4.35;;;2.70;49.40;;;;;;4992219;28;20026;-89
2022/03/12 01:41:40;;;;;;;8.88;4.38;;;2.60;49.40;;;;;;4991251;28;20033;-87
2022/03/12 01:44:07;;;;;;;6.63;4.47;;;2.60;49.50;;;;;;4984843;28;20037;-89
2022/03/12 01:46:44;;;;;;;9.63;4.70;;;2.60;49.50;;;;;;4992663;28;20498;-88
2022/03/12 01:49:12;;;;;;;14.60;4.53;;;2.60;49.60;;;;;;4993366;28;20031;-88
2022/03/12 01:51:39;;;;;;;8.30;4.60;;;2.60;49.70;;;;;;4991946;28;20044;-89
2022/03/12 01:54:05;;;;;;;10.35;4.53;;;2.50;49.60;;;;;;4989386;28;20133;-87
2022/03/12 01:56:34;;;;;;;7.03;4.18;;;2.50;49.70;;;;;;4986569;28;20027;-88
2022/03/12 01:59:01;;;;;;;8.75;4.68;;;2.50;49.80;;;;;;4996864;28;20029;-89
2022/03/12 02:01:28;;;;;;;9.43;5.15;;;2.50;49.90;;;;;;4990273;28;20082;-88
2022/03/12 02:03:56;;;;;;;7.05;4.10;;;2.50;49.90;;;;;;4991654;28;20046;-88
2022/03/12 02:06:21;;;;;;;7.28;4.55;;;2.40;49.90;;;;;;4991354;28;20133;-88
2022/03/12 02:09:00;;;;;;;6.50;4.32;;;2.40;49.90;;;;;;4991400;28;20057;-88
2022/03/12 02:11:30;;;;;;;6.55;4.53;;;2.30;49.90;;;;;;4992743;28;20026;-88
2022/03/12 02:14:15;;;;;;;6.53;4.30;;;2.30;50.20;;;;;;4988804;28;20019;-88
2022/03/12 02:16:48;;;;;;;7.93;4.28;;;2.30;50.00;;;;;;4988496;28;20027;-89
2022/03/12 02:19:14;;;;;;;8.55;4.60;;;2.30;50.00;;;;;;4989469;28;20019;-87
2022/03/12 02:21:50;;;;;;;8.23;4.70;;;2.30;50.10;;;;;;4989522;28;20663;-89
2022/03/12 02:24:17;;;;;;;6.93;4.35;;;2.30;50.20;;;;;;4988665;28;20049;-88
2022/03/12 02:26:44;;;;;;;11.77;4.88;;;2.30;50.20;;;;;;4995734;28;20038;-88
2022/03/12 02:29:19;;;;;;;8.38;4.72;;;2.30;50.20;;;;;;4997644;28;20163;-88
2022/03/12 02:31:56;;;;;;;7.72;4.63;;;2.20;50.30;;;;;;4976666;28;20030;-88
2022/03/12 02:34:27;;;;;;;9.77;4.95;;;2.20;50.30;;;;;;4991725;28;20541;-88
2022/03/12 02:36:56;;;;;;;9.10;4.65;;;2.20;50.40;;;;;;4992374;28;20053;-90
2022/03/12 02:39:22;;;;;;;7.15;4.30;;;2.20;50.40;;;;;;4991534;28;20018;-88
2022/03/12 02:41:48;;;;;;;7.78;4.38;;;2.10;50.40;;;;;;5001832;28;20045;-87
2022/03/12 02:44:21;;;;;;;6.78;4.45;;;2.10;50.50;;;;;;5013881;28;20033;-87
2022/03/12 02:47:09;;;;;;;6.55;4.28;;;2.10;50.50;;;;;;4998496;28;20115;-87
2022/03/12 02:49:38;;;;;;;6.78;4.13;;;2.10;50.60;;;;;;4980994;28;20027;-88
2022/03/12 02:52:07;;;;;;;7.32;4.25;;;2.10;50.60;;;;;;4980192;28;20037;-87
2022/03/12 02:54:36;;;;;;;8.30;4.68;;;2.10;50.60;;;;;;4991184;28;20023;-88
2022/03/12 02:57:02;;;;;;;6.38;4.22;;;2.00;50.60;;;;;;4994095;28;20125;-88
2022/03/12 02:59:29;;;;;;;6.03;4.10;;;2.00;50.60;;;;;;5008145;28;20025;-90
2022/03/12 03:02:00;;;;;;;6.18;4.30;;;2.00;50.60;;;;;;4990446;28;20022;-89
2022/03/12 03:04:26;;;;;;;11.45;4.70;;;2.00;50.70;;;;;;4991847;28;20045;-88
2022/03/12 03:06:51;;;;;;;8.38;4.60;;;2.00;50.70;;;;;;4992196;28;20479;-88
2022/03/12 03:09:17;;;;;;;7.93;4.38;;;2.00;50.70;;;;;;4991827;28;20023;-87
2022/03/12 03:11:44;;;;;;;7.88;4.50;;;2.00;50.70;;;;;;4992088;28;20495;-88
2022/03/12 03:14:12;;;;;;;11.00;4.60;;;2.00;50.80;;;;;;4991166;28;20023;-88
2022/03/12 03:16:39;;;;;;;8.65;4.40;;;2.00;50.90;;;;;;4989200;28;20046;-88
2022/03/12 03:19:05;;;;;;;11.25;5.10;;;2.00;51.00;;;;;;4988626;28;20050;-88
2022/03/12 03:21:30;;;;;;;8.85;4.68;;;2.00;51.00;;;;;;4988265;28;20034;-87
2022/03/12 03:23:56;;;;;;;8.00;4.65;;;2.00;51.00;;;;;;4973175;28;20054;-88
2022/03/12 03:26:50;;;;;;;7.82;4.53;;;2.00;51.00;;;;;;4995764;28;20041;-88
2022/03/12 03:29:19;;;;;;;8.07;4.43;;;2.00;51.20;;;;;;5002387;28;20038;-88
2022/03/12 03:31:46;;;;;;;6.85;4.20;;;2.00;51.00;;;;;;4988558;28;20031;-89
2022/03/12 03:34:11;;;;;;;8.57;4.50;;;1.90;51.10;;;;;;4990632;28;20049;-87
2022/03/12 03:36:37;;;;;;;9.15;4.78;;;1.90;51.20;;;;;;4981881;28;20026;-88
2022/03/12 03:39:04;;;;;;;7.07;4.85;;;1.90;51.20;;;;;;4991046;28;20410;-88
2022/03/12 03:41:29;;;;;;;6.35;4.30;;;1.90;51.30;;;;;;4978818;28;20064;-88
2022/03/12 03:43:55;;;;;;;7.05;4.63;;;1.90;51.30;;;;;;4990509;28;20058;-88
2022/03/12 03:46:22;;;;;;;8.90;4.97;;;1.80;51.30;;;;;;4984632;28;20197;-89
2022/03/12 03:48:51;;;;;;;6.45;3.97;;;1.90;51.50;;;;;;4990243;28;20041;-88
2022/03/12 03:51:18;;;;;;;6.75;4.20;;;1.90;51.50;;;;;;4990165;28;20030;-89
2022/03/12 03:53:44;;;;;;;7.13;4.68;;;1.80;51.50;;;;;;4984614;28;20026;-87
2022/03/12 03:56:10;;;;;;;7.13;4.40;;;1.80;51.50;;;;;;4994402;28;20040;-88
2022/03/12 03:58:36;;;;;;;8.80;4.88;;;1.80;51.50;;;;;;5001847;28;20114;-89
2022/03/12 04:01:16;;;;;;;7.45;4.63;;;1.80;51.60;;;;;;4991616;28;20475;-88
2022/03/12 04:03:48;;;;;;;7.32;4.47;;;1.90;51.70;;;;;;4990674;28;20026;-89
2022/03/12 04:06:23;;;;;;;7.32;4.75;;;1.80;51.50;;;;;;4978915;28;20018;-88
2022/03/12 04:08:50;;;;;;;7.22;4.05;;;1.80;51.60;;;;;;4972681;28;20487;-88
2022/03/12 04:11:23;;;;;;;7.60;4.45;;;1.80;51.60;;;;;;4986244;28;20038;-88
2022/03/12 04:13:52;;;;;;;5.47;4.03;;;1.80;51.60;;;;;;4977354;28;20122;-87
2022/03/12 04:16:19;;;;;;;7.38;4.55;;;1.80;51.70;;;;;;4986171;28;20022;-89
2022/03/12 04:18:46;;;;;;;7.18;4.28;;;1.80;51.70;;;;;;4991539;28;20027;-87
2022/03/12 04:21:16;;;;;;;6.43;4.72;;;1.80;51.80;;;;;;4989351;28;20113;-89
2022/03/12 04:23:42;;;;;;;6.82;4.43;;;1.80;51.80;;;;;;4990541;28;20089;-88
2022/03/12 04:26:09;;;;;;;7.68;4.68;;;1.90;52.00;;;;;;4998692;28;20117;-89
2022/03/12 04:28:36;;;;;;;8.25;4.43;;;1.90;52.50;;;;;;5001994;28;20031;-87
2022/03/12 04:31:03;;;;;;;6.60;4.72;;;1.90;52.00;;;;;;4989363;28;20034;-86
2022/03/12 04:33:29;;;;;;;7.55;4.15;;;1.90;52.00;;;;;;4990055;28;20098;-89
2022/03/12 04:35:56;;;;;;;7.03;4.50;;;1.90;52.00;;;;;;4990167;28;20014;-89
2022/03/12 04:38:22;;;;;;;13.00;4.38;;;1.90;52.10;;;;;;4989462;28;20029;-88
2022/03/12 04:40:48;;;;;;;7.80;4.50;;;1.80;52.10;;;;;;4990165;28;20029;-89
2022/03/12 04:43:14;;;;;;;8.02;4.45;;;1.80;52.10;;;;;;4990697;28;20677;-88
2022/03/12 04:45:45;;;;;;;9.50;4.82;;;1.80;52.20;;;;;;4988903;28;20478;-89
2022/03/12 04:48:15;;;;;;;6.82;4.40;;;1.80;52.30;;;;;;4992064;28;20518;-88
2022/03/12 04:50:41;;;;;;;7.53;4.80;;;1.80;52.40;;;;;;4992681;28;20027;-88
2022/03/12 04:53:08;;;;;;;8.02;5.18;;;1.80;52.50;;;;;;4992295;28;20048;-89
2022/03/12 04:55:36;;;;;;;10.60;4.32;;;1.70;52.50;;;;;;4997768;28;20028;-89
2022/03/12 04:58:04;;;;;;;12.20;4.90;;;1.70;52.60;;;;;;5000245;28;20057;-88
2022/03/12 05:00:31;;;;;;;9.38;5.18;;;1.70;52.60;;;;;;4987991;28;20061;-87
2022/03/12 05:03:18;;;;;;;8.43;5.07;;;1.70;52.70;;;;;;4991393;28;20399;-87
2022/03/12 05:05:46;;;;;;;7.22;4.38;;;1.80;53.00;;;;;;4993515;28;20562;-88
2022/03/12 05:08:15;;;;;;;8.13;4.45;;;1.80;52.80;;;;;;4983479;28;20038;-88
2022/03/12 05:10:41;;;;;;;7.22;4.78;;;1.70;52.90;;;;;;4995569;28;20031;-88
2022/03/12 05:13:07;;;;;;;7.75;4.85;;;1.70;52.90;;;;;;4993979;28;20356;-88
2022/03/12 05:15:38;;;;;;;8.38;4.55;;;1.70;52.90;;;;;;4992890;28;20031;-89
2022/03/12 05:18:08;;;;;;;7.13;4.43;;;1.70;52.90;;;;;;4992634;28;20391;-89
2022/03/12 05:20:36;;;;;;;10.25;4.85;;;1.70;53.00;;;;;;4987394;28;20030;-88
2022/03/12 05:23:04;;;;;;;8.73;4.72;;;1.70;53.00;;;;;;4992895;28;20026;-88
2022/03/12 05:25:31;;;;;;;8.52;4.90;;;1.70;53.10;;;;;;4986705;28;20490;-87
2022/03/12 05:27:57;;;;;;;10.73;4.85;;;1.70;53.10;;;;;;5005173;28;20116;-88
2022/03/12 05:30:22;;;;;;;7.55;4.47;;;1.70;53.10;;;;;;4975112;28;20031;-88
2022/03/12 05:32:49;;;;;;;6.95;4.93;;;1.70;53.20;;;;;;4977782;28;20618;-88
2022/03/12 05:35:19;;;;;;;8.43;4.55;;;1.70;53.20;;;;;;5001012;28;20041;-88
2022/03/12 05:37:46;;;;;;;7.88;4.97;;;1.70;53.20;;;;;;5012070;28;20014;-87
2022/03/12 05:40:14;;;;;;;5.55;4.18;;;1.70;53.20;;;;;;5004642;28;20034;-88
2022/03/12 05:42:42;;;;;;;8.05;4.68;;;1.60;53.20;;;;;;4992682;28;20022;-89
2022/03/12 05:45:09;;;;;;;9.68;4.70;;;1.60;53.20;;;;;;4992128;28;20026;-89
2022/03/12 05:47:41;;;;;;;10.05;4.97;;;1.70;53.30;;;;;;4992750;28;20026;-89
2022/03/12 05:50:09;;;;;;;9.70;4.50;;;1.70;53.50;;;;;;4988830;28;20031;-89
2022/03/12 05:52:37;;;;;;;9.10;4.82;;;1.60;53.30;;;;;;4992368;28;20022;-88
2022/03/12 05:55:22;;;;;;;7.45;5.10;;;1.60;53.30;;;;;;4997986;28;20076;-88
2022/03/12 05:57:48;;;;;;;9.40;5.10;;;1.60;53.50;;;;;;5001142;28;20022;-89
2022/03/12 06:00:16;;;;;;;6.80;4.32;;;1.60;53.40;;;;;;4991526;28;20022;-90
2022/03/12 06:02:49;;;;;;;9.55;5.00;;;1.50;53.50;;;;;;4990916;28;20030;-89
2022/03/12 06:05:17;;;;;;;9.13;5.00;;;1.50;53.50;;;;;;4992553;28;20034;-89
2022/03/12 06:07:45;;;;;;;6.60;4.85;;;1.50;53.60;;;;;;4993046;28;20459;-90
2022/03/12 06:10:13;;;;;;;7.70;4.80;;;1.50;53.60;;;;;;4991705;28;20525;-89
2022/03/12 06:12:43;;;;;;;7.35;4.25;;;1.50;53.70;;;;;;4992058;28;20050;-88
2022/03/12 06:15:10;;;;;;;8.38;5.15;;;1.50;54.20;;;;;;4989615;28;20081;-89
2022/03/12 06:17:36;;;;;;;9.35;4.90;;;1.50;53.80;;;;;;4991780;28;20026;-88
2022/03/12 06:20:02;;;;;;;8.55;5.00;;;1.50;53.90;;;;;;4977639;28;20093;-89
2022/03/12 06:22:27;;;;;;;8.10;4.90;;;1.50;54.00;;;;;;4972643;28;20038;-89
2022/03/12 06:24:53;;;;;;;7.88;4.68;;;1.50;54.00;;;;;;5118742;23;20082;-88
2022/03/12 06:27:22;;;;;;;8.40;5.18;;;1.50;54.00;;;;;;4956551;28;20035;-87
2022/03/12 06:29:48;;;;;;;7.55;4.75;;;1.50;54.10;;;;;;4971643;28;20057;-89
2022/03/12 06:32:14;;;;;;;12.00;5.03;;;1.50;54.10;;;;;;4958046;29;20483;-88
2022/03/12 06:34:42;;;;;;;10.88;5.03;;;1.60;54.20;;;;;;4943683;29;20126;-88
2022/03/12 06:37:08;;;;;;;7.88;4.85;;;1.60;54.20;;;;;;4950200;28;20026;-88
2022/03/12 06:39:37;;;;;;;8.57;5.03;;;1.70;54.20;;;;;;4937156;29;20118;-88
2022/03/12 06:42:03;;;;;;;11.60;4.78;;;1.80;54.30;;;;;;4935923;29;20461;-89
2022/03/12 06:44:32;;;;;;;9.80;5.20;;;1.90;54.40;;;;;;4940597;28;20134;-88
2022/03/12 06:47:01;;;;;;;10.35;5.63;;;2.00;54.40;;;;;;4937864;28;20572;-88
2022/03/12 06:49:27;;;;;;;7.63;5.13;;;2.10;54.30;;;;;;4937948;29;20075;-89
2022/03/12 06:51:53;;;;;;;7.78;4.57;;;2.20;54.20;;;;;;4952978;28;20101;-88
2022/03/12 06:54:25;;;;;;;8.52;5.40;;;2.30;54.10;;;;;;4953200;29;20054;-88
2022/03/12 06:56:51;;;;;;;7.72;4.57;;;2.40;54.10;;;;;;4935358;28;20031;-88
2022/03/12 06:59:17;;;;;;;10.45;4.90;;;2.50;54.00;;;;;;4955877;28;20403;-88
2022/03/12 07:01:42;;;;;;;6.75;4.93;;;2.60;53.90;;;;;;4953215;28;20639;-89
2022/03/12 07:04:10;;;;;;;11.93;4.97;;;2.80;53.90;;;;;;4936672;29;20095;-89
2022/03/12 07:06:38;;;;;;;7.70;5.13;;;2.90;53.90;;;;;;4935716;29;20086;-87
2022/03/12 07:09:07;;;;;;;9.50;5.25;;;3.10;53.80;;;;;;4940128;29;20031;-88
2022/03/12 07:11:34;;;;;;;9.10;5.07;;;3.30;53.80;;;;;;4951113;29;20031;-88
2022/03/12 07:14:00;;;;;;;8.65;4.80;;;3.50;53.50;;;;;;4943818;28;20027;-88
2022/03/12 07:16:25;;;;;;;8.45;5.25;;;3.60;53.30;;;;;;4937545;29;20023;-88
2022/03/12 07:18:51;;;;;;;14.80;4.82;;;3.60;53.30;;;;;;4937468;29;20027;-88
2022/03/12 07:21:17;;;;;;;8.13;5.05;;;3.80;53.50;;;;;;4952186;28;20043;-88
2022/03/12 07:23:43;;;;;;;7.75;4.57;;;3.90;53.50;;;;;;4948006;29;20042;-88
2022/03/12 07:26:08;;;;;;;6.65;4.40;;;4.00;53.40;;;;;;4947554;28;20037;-88
2022/03/12 07:28:34;;;;;;;14.88;4.70;;;4.10;53.40;;;;;;4964508;28;20253;-87
2022/03/12 07:31:01;;;;;;;7.55;4.55;;;4.20;53.20;;;;;;4946902;28;20035;-88
2022/03/12 07:33:29;;;;;;;10.45;4.90;;;4.50;53.10;;;;;;4942368;28;20050;-87
2022/03/12 07:35:55;;;;;;;7.22;4.60;;;4.80;52.70;;;;;;4943395;28;20487;-89
2022/03/12 07:38:21;;;;;;;9.32;5.10;;;5.10;52.40;;;;;;4937529;28;20027;-88
2022/03/12 07:40:47;;;;;;;7.85;5.38;;;5.40;52.30;;;;;;4938752;29;20028;-88
2022/03/12 07:43:12;;;;;;;7.65;4.78;;;5.60;52.00;;;;;;4935628;29;20023;-87
2022/03/12 07:45:38;;;;;;;7.18;5.00;;;6.00;51.60;;;;;;4936761;29;20027;-87
2022/03/12 07:48:05;;;;;;;8.45;5.13;;;6.50;51.10;;;;;;4935326;29;20074;-87
2022/03/12 07:50:31;;;;;;;7.53;5.10;;;7.10;50.70;;;;;;4944758;29;20034;-88
2022/03/12 07:52:57;;;;;;;9.73;5.05;;;7.60;50.20;;;;;;4939031;29;20031;-87
2022/03/12 07:55:23;;;;;;;8.07;5.20;;;7.80;49.80;;;;;;4947562;28;20028;-88
2022/03/12 07:57:49;;;;;;;7.18;5.05;;;8.00;49.80;;;;;;4957875;28;20022;-86
2022/03/12 08:00:16;;;;;;;7.55;5.15;;;8.10;49.60;;;;;;4953956;28;20031;-89
2022/03/12 08:02:43;;;;;;;7.80;5.05;;;8.30;49.70;;;;;;4939369;29;20023;-87
2022/03/12 08:05:08;;;;;;;9.00;5.57;;;8.30;49.40;;;;;;4950765;28;20032;-89
2022/03/12 08:07:38;;;;;;;9.02;5.55;;;8.50;49.40;;;;;;4938706;29;20031;-88
2022/03/12 08:10:04;;;;;;;8.00;5.38;;;8.80;49.10;;;;;;4938562;29;20031;-88
2022/03/12 08:12:31;;;;;;;7.70;5.38;;;8.90;49.10;;;;;;4934974;29;20031;-89
2022/03/12 08:14:58;;;;;;;7.85;4.72;;;9.10;49.20;;;;;;4934107;29;20034;-88
2022/03/12 08:17:24;;;;;;;8.43;5.07;;;9.20;49.00;;;;;;4942711;29;20507;-89
2022/03/12 08:19:50;;;;;;;8.15;5.18;;;9.20;48.90;;;;;;4943753;29;20122;-89
2022/03/12 08:22:16;;;;;;;9.75;5.55;;;9.10;48.70;;;;;;4938039;29;20023;-88
2022/03/12 08:24:42;;;;;;;7.63;5.53;;;9.00;48.90;;;;;;4925119;28;20034;-88
2022/03/12 08:27:08;;;;;;;8.02;5.38;;;9.00;48.90;;;;;;4938807;28;20027;-88
2022/03/12 08:29:34;;;;;;;6.50;5.07;;;8.90;49.00;;;;;;4951317;29;20023;-88
2022/03/12 08:32:00;;;;;;;9.30;5.13;;;8.80;49.20;;;;;;4938743;29;20492;-89
2022/03/12 08:34:26;;;;;;;8.25;5.18;;;8.80;49.30;;;;;;4937785;29;20023;-88
2022/03/12 08:37:04;;;;;;;10.60;6.03;;;8.80;49.30;;;;;;4958488;29;20155;-91
2022/03/12 08:40:06;;;;;;;8.88;5.70;;;8.90;49.10;;;;;;4948915;28;20093;-93
2022/03/12 08:42:51;;;;;;;7.53;5.15;;;9.00;49.10;;;;;;4952113;29;20110;-91
2022/03/12 08:45:17;;;;;;;9.40;4.90;;;8.90;49.10;;;;;;4936486;29;20031;-88
2022/03/12 08:47:46;;;;;;;7.72;5.40;;;8.90;49.30;;;;;;4946327;29;20041;-88
2022/03/12 08:50:12;;;;;;;9.35;5.60;;;8.90;49.40;;;;;;4960527;28;20094;-85
2022/03/12 08:52:42;;;;;;;7.13;5.00;;;8.90;49.50;;;;;;4971195;28;20012;-88
2022/03/12 08:55:12;;;;;;;9.98;5.40;;;9.00;49.40;;;;;;4964728;28;20070;-88
2022/03/12 08:57:39;;;;;;;7.53;5.15;;;9.10;49.20;;;;;;4980386;28;20021;-87
2022/03/12 09:00:07;;;;;;;7.47;5.55;;;9.10;49.00;;;;;;4979835;28;20015;-87
2022/03/12 09:02:34;;;;;;;11.15;5.15;;;9.10;48.90;;;;;;4980014;28;20036;-87
2022/03/12 09:05:04;;;;;;;9.02;5.78;;;9.10;49.50;;;;;;4980781;28;20061;-87
2022/03/12 09:07:30;;;;;;;8.27;5.30;;;9.20;48.80;;;;;;4980089;28;20031;-88
2022/03/12 09:09:56;;;;;;;8.40;5.68;;;9.30;48.90;;;;;;4979501;28;20019;-88
2022/03/12 09:12:22;;;;;;;9.05;5.50;;;9.30;48.80;;;;;;4957531;29;20074;-91
2022/03/12 09:14:48;;;;;;;11.48;5.65;;;9.50;48.70;;;;;;4957307;29;20067;-89
2022/03/12 09:17:14;;;;;;;9.25;5.35;;;9.50;48.40;;;;;;4955946;28;20023;-89
2022/03/12 09:19:39;;;;;;;10.40;6.40;;;9.60;48.20;;;;;;4940017;29;20122;-89
2022/03/12 09:22:05;;;;;;;13.15;6.10;;;9.50;48.70;;;;;;4939578;29;20035;-89
2022/03/12 09:24:31;;;;;;;9.57;5.72;;;9.60;48.30;;;;;;4938670;28;20444;-89
2022/03/12 09:26:57;;;;;;;9.38;6.05;;;9.70;48.30;;;;;;4969031;28;20165;-89
2022/03/12 09:29:23;;;;;;;11.95;6.03;;;9.70;48.00;;;;;;4974256;28;20054;-89
2022/03/12 09:31:49;;;;;;;7.88;5.35;;;9.80;47.90;;;;;;4958275;28;20037;-89
2022/03/12 09:34:14;;;;;;;9.82;5.72;;;9.80;47.80;;;;;;4954610;28;20034;-88
2022/03/12 09:36:41;;;;;;;9.75;5.28;;;9.90;47.80;;;;;;4937224;29;20031;-88
2022/03/12 09:39:07;;;;;;;10.77;5.32;;;10.00;47.70;;;;;;4951700;29;20071;-89
2022/03/12 09:41:34;;;;;;;8.30;5.38;;;10.10;47.70;;;;;;4953635;28;20029;-89
2022/03/12 09:44:01;;;;;;;11.45;5.95;;;10.10;47.70;;;;;;4939628;28;20046;-88
2022/03/12 09:46:27;;;;;;;12.73;5.97;;;10.20;47.60;;;;;;4937652;29;20381;-89
2022/03/12 09:48:52;;;;;;;10.35;5.80;;;10.30;47.30;;;;;;4937858;29;20038;-89
2022/03/12 09:51:18;;;;;;;11.82;6.38;;;10.30;47.30;;;;;;4940060;28;20554;-88
2022/03/12 09:53:44;;;;;;;9.65;5.97;;;10.40;47.20;;;;;;4957249;28;20867;-89
2022/03/12 09:56:10;;;;;;;9.35;5.88;;;10.50;47.20;;;;;;4953081;28;20118;-88
2022/03/12 09:58:35;;;;;;;10.93;6.63;;;10.60;47.20;;;;;;4951105;29;20078;-89
2022/03/12 10:01:01;;;;;;;10.50;6.70;;;10.70;47.10;;;;;;4955060;28;20088;-89
2022/03/12 10:03:26;;;;;;;11.88;6.25;;;10.70;47.10;;;;;;4954920;29;20085;-88
2022/03/12 10:05:52;;;;;;;9.77;5.90;;;10.80;47.20;;;;;;4953141;28;20027;-89
2022/03/12 10:08:18;;;;;;;9.57;5.85;;;10.90;46.90;;;;;;4943239;28;20039;-88
2022/03/12 10:10:45;;;;;;;9.25;6.18;;;11.00;47.00;;;;;;4936763;29;20031;-88
2022/03/12 10:13:11;;;;;;;10.20;6.18;;;11.20;47.00;;;;;;4937055;29;20027;-89
2022/03/12 10:15:37;;;;;;;8.68;6.03;;;11.20;46.70;;;;;;4936891;29;20046;-89
2022/03/12 10:18:03;;;;;;;10.90;6.57;;;11.30;46.60;;;;;;4942126;29;20023;-89
2022/03/12 10:20:30;;;;;;;10.45;6.72;;;11.40;46.60;;;;;;4953394;28;20492;-88
2022/03/12 10:22:56;;;;;;;12.68;6.15;;;11.50;46.80;;;;;;4954069;28;20082;-89
2022/03/12 10:25:22;;;;;;;15.68;6.50;;;11.60;46.50;;;;;;4956131;28;20031;-89
2022/03/12 10:27:48;;;;;;;10.85;6.05;;;11.60;46.80;;;;;;4955342;28;20023;-89
2022/03/12 10:30:14;;;;;;;11.13;6.22;;;11.60;46.40;;;;;;4956466;28;20451;-88
2022/03/12 10:32:45;;;;;;;10.75;5.95;;;11.70;46.50;;;;;;4974309;28;20030;-87
2022/03/12 10:35:13;;;;;;;11.43;6.20;;;11.80;46.40;;;;;;4956825;28;20037;-88
2022/03/12 10:37:39;;;;;;;10.13;6.10;;;11.80;46.30;;;;;;4951860;29;20062;-89
2022/03/12 10:40:12;;;;;;;9.18;6.25;;;11.90;46.40;;;;;;4951730;28;20023;-88
2022/03/12 10:42:46;;;;;;;8.55;5.82;;;11.90;46.10;;;;;;4950258;29;20074;-89
2022/03/12 10:45:15;;;;;;;8.07;5.85;;;12.00;46.20;;;;;;4936366;29;20373;-89
2022/03/12 10:47:46;;;;;;;13.52;6.10;;;12.00;46.70;;;;;;4936739;29;20031;-89
2022/03/12 10:50:16;;;;;;;9.30;6.25;;;12.10;46.30;;;;;;4958596;28;20031;-88
2022/03/12 10:52:46;;;;;;;8.90;6.28;;;12.10;46.30;;;;;;4975202;28;20019;-88
2022/03/12 10:55:33;;;;;;;9.13;6.28;;;12.20;46.30;;;;;;4957861;29;20023;-88
2022/03/12 10:58:17;;;;;;;9.98;6.35;;;12.30;46.30;;;;;;4970090;28;20042;-88
2022/03/12 11:00:58;;;;;;;8.77;6.10;;;12.30;46.10;;;;;;4956490;28;20373;-88
2022/03/12 11:03:35;;;;;;;8.82;5.88;;;12.40;46.20;;;;;;4940750;28;20427;-88
2022/03/12 11:06:02;;;;;;;9.90;5.93;;;12.40;46.50;;;;;;4957247;28;20035;-89
2022/03/12 11:08:31;;;;;;;8.85;6.22;;;12.50;46.60;;;;;;4942139;29;20023;-89
2022/03/12 11:11:11;;;;;;;11.85;6.18;;;12.60;46.60;;;;;;4936719;29;20062;-88
2022/03/12 11:13:44;;;;;;;9.45;6.15;;;12.70;46.40;;;;;;4936628;29;20098;-89
2022/03/12 11:16:13;;;;;;;11.38;6.47;;;12.80;46.30;;;;;;4938275;28;20034;-88
2022/03/12 11:18:51;;;;;;;11.32;6.18;;;12.90;46.30;;;;;;4943856;29;20042;-89
2022/03/12 11:21:26;;;;;;;11.02;6.88;;;13.00;46.50;;;;;;4952028;28;20094;-89
2022/03/12 11:23:51;;;;;;;9.45;6.65;;;13.10;46.60;;;;;;4936484;28;20019;-88
2022/03/12 11:26:17;;;;;;;11.20;6.85;;;13.00;46.30;;;;;;4967930;28;20070;-89
2022/03/12 11:28:56;;;;;;;13.32;6.18;;;13.00;46.40;;;;;;4941488;29;20395;-89
2022/03/12 11:31:40;;;;;;;9.82;6.38;;;13.10;46.80;;;;;;4935874;29;20460;-88
2022/03/12 11:34:23;;;;;;;10.27;6.40;;;13.20;46.70;;;;;;4946154;28;20051;-88
2022/03/12 11:37:04;;;;;;;10.13;5.85;;;13.20;46.90;;;;;;4955406;28;20403;-89
2022/03/12 11:39:40;;;;;;;13.52;6.78;;;13.30;46.80;;;;;;4938312;28;20028;-89
2022/03/12 11:42:12;;;;;;;11.60;6.32;;;13.40;46.90;;;;;;4952048;28;20090;-89
2022/03/12 11:44:40;;;;;;;9.55;6.38;;;13.50;47.00;;;;;;4935444;29;20419;-88
2022/03/12 11:47:06;;;;;;;13.32;7.75;;;13.50;47.10;;;;;;4931911;29;21534;-89
2022/03/12 11:49:35;;;;;;;8.95;6.00;;;13.50;47.10;;;;;;4937934;28;20518;-89
2022/03/12 11:52:01;;;;;;;10.75;6.40;;;13.60;47.00;;;;;;4942225;29;20080;-89
2022/03/12 11:54:26;;;;;;;11.85;6.57;;;13.70;46.90;;;;;;4956715;28;20023;-90
2022/03/12 11:56:52;;;;;;;10.05;6.57;;;13.70;46.90;;;;;;4956944;28;20074;-89
2022/03/12 11:59:19;;;;;;;12.32;7.18;;;13.80;47.10;;;;;;4941559;28;20031;-88
2022/03/12 12:02:01;;;;;;;11.50;6.20;;;13.80;47.20;;;;;;4956795;29;20077;-89
2022/03/12 12:04:34;;;;;;;9.95;6.53;;;14.00;47.20;;;;;;4940916;29;20055;-89
2022/03/12 12:07:00;;;;;;;10.60;6.60;;;14.00;47.30;;;;;;4939199;28;20023;-88
2022/03/12 12:09:28;;;;;;;9.55;6.35;;;14.00;47.40;;;;;;4957021;28;20484;-88
2022/03/12 12:11:54;;;;;;;11.18;6.70;;;14.20;47.50;;;;;;4947421;28;20035;-89
2022/03/12 12:14:20;;;;;;;9.93;6.60;;;14.30;47.30;;;;;;4956697;29;20019;-90
2022/03/12 12:16:47;;;;;;;9.02;6.40;;;14.30;47.10;;;;;;4950890;29;20023;-88
2022/03/12 12:19:13;;;;;;;13.35;6.82;;;14.30;47.20;;;;;;4942483;29;20433;-89
2022/03/12 12:21:39;;;;;;;11.55;6.18;;;14.30;47.00;;;;;;4945748;29;20027;-89
2022/03/12 12:24:24;;;;;;;8.98;6.20;;;14.30;47.00;;;;;;4955948;28;20377;-89
2022/03/12 12:27:08;;;;;;;8.13;5.95;;;14.30;46.50;;;;;;5015614;23;20531;-87
2022/03/12 12:30:03;;;;;;;9.00;6.18;;;14.30;47.00;;;;;;4941035;28;20034;-88
2022/03/12 12:32:29;;;;;;;11.93;6.47;;;14.30;47.10;;;;;;4924576;29;20254;-87
2022/03/12 12:35:04;;;;;;;10.52;6.55;;;14.30;47.00;;;;;;4922402;29;20070;-88
2022/03/12 12:38:02;;;;;;;9.02;6.50;;;14.30;47.00;;;;;;4950374;28;20019;-88
2022/03/12 12:40:36;;;;;;;9.15;6.82;;;14.40;47.00;;;;;;4949511;29;20047;-86
2022/03/12 12:43:11;;;;;;;8.90;5.82;;;14.40;47.10;;;;;;4944386;29;20452;-88
2022/03/12 12:46:01;;;;;;;9.85;6.22;;;14.40;47.00;;;;;;4945831;29;20357;-88
2022/03/12 12:48:38;;;;;;;10.82;6.25;;;14.40;47.00;;;;;;4931333;29;20667;-88
2022/03/12 12:51:16;;;;;;;11.65;6.55;;;14.40;47.20;;;;;;4927920;28;20035;-89
2022/03/12 12:53:48;;;;;;;9.43;6.35;;;14.50;47.30;;;;;;4969407;28;20551;-89
2022/03/12 12:56:23;;;;;;;8.95;6.43;;;14.50;47.20;;;;;;4941236;28;20027;-88
2022/03/12 12:58:51;;;;;;;12.48;6.53;;;14.60;47.20;;;;;;4969209;28;20110;-86
2022/03/12 13:01:20;;;;;;;9.73;6.25;;;14.60;47.20;;;;;;4952518;28;20396;-88
2022/03/12 13:03:48;;;;;;;11.20;6.68;;;14.60;47.40;;;;;;4938720;29;20031;-89
2022/03/12 13:06:37;;;;;;;9.38;6.55;;;14.50;47.20;;;;;;4938615;29;20031;-88
2022/03/12 13:09:45;;;;;;;10.40;6.88;;;14.50;47.00;;;;;;4935348;28;20496;-87